首页
METAR-TAF:

METAR-TAF

机场 :

墨西卡利, 墨西哥

纬度: 32-37-50N, 经度: 115-14-30W, 海拔: 22米

当前天气观测

该预报发布于37分钟前的07:47 UTC
静风
温度 12°C
湿度 54%
气压 1019 hPa
能見度: 16.1公里
天空无云

METAR: MMML 260747Z 00000KT 10SM SKC 12/03 A3008

时间: 02:24 (08:24 UTC)

预报

该预报发布于3小时和23分钟前的05:01 UTC
预报有效从26日的 06点(UTC)到 27日的 06点(UTC)
风速节,风向
能見度: 10公里
天空无云
从 26日的 1800点(UTC)
风速10节,风向北转西北
能見度: 10公里
天空无云
从 27日的 0300点(UTC)
风速5节,风向北转西北
能見度: 10公里
天空无云

TAF: MMML 260501Z 2606/2706 00000KT P6SM SKC FM261800 33010KT P6SM SKC FM270300 33005KT P6SM SKC

超过4000个机场的气象观测和天气预报(METAR&TAF报告)。

可查询的气象台以黄色和红色小点在地图上表示。

将鼠标移到小点上方,可查看气象台名称。

然后点击查看天气观测和预报。

如需切换地图:点击带黑十字的绿色按钮放大地图;点击带横线的绿色按钮缩小地图;或者点击绿色箭头查看邻近地区的地图。


METAR-TAF: